sensor_id;sensor_type;location;lat;lon;timestamp;temperature;humidity
18339;DHT22;9295;44.484;11.240;2022-12-18T00:00:09;8.20;99.90
18339;DHT22;9295;44.484;11.240;2022-12-18T00:02:40;8.20;99.90
18339;DHT22;9295;44.484;11.240;2022-12-18T00:05:09;8.20;99.90
18339;DHT22;9295;44.484;11.240;2022-12-18T00:07:37;8.20;99.90
18339;DHT22;9295;44.484;11.240;2022-12-18T00:10:06;8.20;99.90
18339;DHT22;9295;44.484;11.240;2022-12-18T00:12:35;8.20;99.90
18339;DHT22;9295;44.484;11.240;2022-12-18T00:15:04;8.10;99.90
18339;DHT22;9295;44.484;11.240;2022-12-18T00:17:34;8.10;99.90
18339;DHT22;9295;44.484;11.240;2022-12-18T00:20:03;8.10;99.90
18339;DHT22;9295;44.484;11.240;2022-12-18T00:22:32;8.20;99.90
18339;DHT22;9295;44.484;11.240;2022-12-18T00:25:00;8.10;99.90
18339;DHT22;9295;44.484;11.240;2022-12-18T00:27:29;8.20;99.90
18339;DHT22;9295;44.484;11.240;2022-12-18T00:29:57;8.20;99.90
18339;DHT22;9295;44.484;11.240;2022-12-18T00:32:25;8.20;99.90
18339;DHT22;9295;44.484;11.240;2022-12-18T00:34:56;8.20;99.90
18339;DHT22;9295;44.484;11.240;2022-12-18T00:37:24;8.20;99.90
18339;DHT22;9295;44.484;11.240;2022-12-18T00:39:53;8.10;99.90
18339;DHT22;9295;44.484;11.240;2022-12-18T00:42:40;8.10;99.90
18339;DHT22;9295;44.484;11.240;2022-12-18T00:45:28;8.10;99.90
18339;DHT22;9295;44.484;11.240;2022-12-18T00:47:57;8.00;99.90
18339;DHT22;9295;44.484;11.240;2022-12-18T00:50:27;8.00;99.90
18339;DHT22;9295;44.484;11.240;2022-12-18T00:52:56;8.00;99.90
18339;DHT22;9295;44.484;11.240;2022-12-18T00:55:24;8.00;99.90
18339;DHT22;9295;44.484;11.240;2022-12-18T00:57:52;7.90;99.90
18339;DHT22;9295;44.484;11.240;2022-12-18T01:00:21;7.90;99.90
18339;DHT22;9295;44.484;11.240;2022-12-18T01:02:50;7.80;99.90
18339;DHT22;9295;44.484;11.240;2022-12-18T01:05:19;7.70;99.90
18339;DHT22;9295;44.484;11.240;2022-12-18T01:07:49;7.60;99.90
18339;DHT22;9295;44.484;11.240;2022-12-18T01:10:18;7.50;99.90
18339;DHT22;9295;44.484;11.240;2022-12-18T01:12:46;7.50;99.90
18339;DHT22;9295;44.484;11.240;2022-12-18T01:15:18;7.40;99.90
18339;DHT22;9295;44.484;11.240;2022-12-18T01:17:47;7.30;99.90
18339;DHT22;9295;44.484;11.240;2022-12-18T01:20:15;7.20;99.90
18339;DHT22;9295;44.484;11.240;2022-12-18T01:22:45;7.20;99.90
18339;DHT22;9295;44.484;11.240;2022-12-18T01:25:15;7.10;99.90
18339;DHT22;9295;44.484;11.240;2022-12-18T01:27:43;7.10;99.90
18339;DHT22;9295;44.484;11.240;2022-12-18T01:30:12;7.00;99.90
18339;DHT22;9295;44.484;11.240;2022-12-18T01:32:41;7.00;99.90
18339;DHT22;9295;44.484;11.240;2022-12-18T01:35:09;6.90;99.90
18339;DHT22;9295;44.484;11.240;2022-12-18T01:37:37;6.90;99.90
18339;DHT22;9295;44.484;11.240;2022-12-18T01:40:07;6.80;99.90
18339;DHT22;9295;44.484;11.240;2022-12-18T01:42:37;6.70;99.90
18339;DHT22;9295;44.484;11.240;2022-12-18T01:45:23;6.60;99.90
18339;DHT22;9295;44.484;11.240;2022-12-18T01:47:54;6.60;99.90
18339;DHT22;9295;44.484;11.240;2022-12-18T01:50:25;6.50;99.90
18339;DHT22;9295;44.484;11.240;2022-12-18T01:52:56;6.50;99.90
18339;DHT22;9295;44.484;11.240;2022-12-18T01:55:29;6.40;99.90
18339;DHT22;9295;44.484;11.240;2022-12-18T01:58:00;6.30;99.90
18339;DHT22;9295;44.484;11.240;2022-12-18T02:00:29;6.30;99.90
18339;DHT22;9295;44.484;11.240;2022-12-18T02:02:58;6.20;99.90
18339;DHT22;9295;44.484;11.240;2022-12-18T02:05:39;6.20;99.90
18339;DHT22;9295;44.484;11.240;2022-12-18T02:08:12;6.20;99.90
18339;DHT22;9295;44.484;11.240;2022-12-18T02:10:47;6.20;99.90
18339;DHT22;9295;44.484;11.240;2022-12-18T02:13:32;6.20;99.90
18339;DHT22;9295;44.484;11.240;2022-12-18T02:16:11;6.10;99.90
18339;DHT22;9295;44.484;11.240;2022-12-18T02:18:46;6.10;99.90
18339;DHT22;9295;44.484;11.240;2022-12-18T02:21:24;6.00;99.90
18339;DHT22;9295;44.484;11.240;2022-12-18T02:24:04;6.00;99.90
18339;DHT22;9295;44.484;11.240;2022-12-18T02:26:43;5.90;99.90
18339;DHT22;9295;44.484;11.240;2022-12-18T02:29:16;5.90;99.90
18339;DHT22;9295;44.484;11.240;2022-12-18T02:31:50;5.90;99.90
18339;DHT22;9295;44.484;11.240;2022-12-18T02:34:21;5.90;99.90
18339;DHT22;9295;44.484;11.240;2022-12-18T02:36:53;5.90;99.90
18339;DHT22;9295;44.484;11.240;2022-12-18T02:39:23;5.80;99.90
18339;DHT22;9295;44.484;11.240;2022-12-18T02:42:02;5.70;99.90
18339;DHT22;9295;44.484;11.240;2022-12-18T02:44:35;5.80;99.90
18339;DHT22;9295;44.484;11.240;2022-12-18T02:47:10;5.70;99.90
18339;DHT22;9295;44.484;11.240;2022-12-18T02:49:44;5.70;99.90
18339;DHT22;9295;44.484;11.240;2022-12-18T02:52:25;5.70;99.90
18339;DHT22;9295;44.484;11.240;2022-12-18T02:55:10;5.70;99.90
18339;DHT22;9295;44.484;11.240;2022-12-18T02:57:48;5.70;99.90
18339;DHT22;9295;44.484;11.240;2022-12-18T03:00:23;5.80;99.90
18339;DHT22;9295;44.484;11.240;2022-12-18T03:02:55;5.80;99.90
18339;DHT22;9295;44.484;11.240;2022-12-18T03:05:31;5.80;99.90
18339;DHT22;9295;44.484;11.240;2022-12-18T03:08:05;5.80;99.90
18339;DHT22;9295;44.484;11.240;2022-12-18T03:10:41;5.90;99.90
18339;DHT22;9295;44.484;11.240;2022-12-18T03:13:15;6.00;99.90
18339;DHT22;9295;44.484;11.240;2022-12-18T03:15:49;6.00;99.90
18339;DHT22;9295;44.484;11.240;2022-12-18T03:18:21;6.00;99.90
18339;DHT22;9295;44.484;11.240;2022-12-18T03:20:53;6.10;99.90
18339;DHT22;9295;44.484;11.240;2022-12-18T03:23:28;6.20;99.90
18339;DHT22;9295;44.484;11.240;2022-12-18T03:25:59;6.30;99.90
18339;DHT22;9295;44.484;11.240;2022-12-18T03:28:42;6.30;99.90
18339;DHT22;9295;44.484;11.240;2022-12-18T03:31:14;6.40;99.90
18339;DHT22;9295;44.484;11.240;2022-12-18T03:33:46;6.30;99.90
18339;DHT22;9295;44.484;11.240;2022-12-18T03:36:17;6.40;99.90
18339;DHT22;9295;44.484;11.240;2022-12-18T03:38:47;6.40;99.90
18339;DHT22;9295;44.484;11.240;2022-12-18T03:41:19;6.50;99.90
18339;DHT22;9295;44.484;11.240;2022-12-18T03:44:23;6.50;99.90
18339;DHT22;9295;44.484;11.240;2022-12-18T03:46:59;6.50;99.90
18339;DHT22;9295;44.484;11.240;2022-12-18T03:49:36;6.60;99.90
18339;DHT22;9295;44.484;11.240;2022-12-18T03:52:11;6.60;99.90
18339;DHT22;9295;44.484;11.240;2022-12-18T03:54:41;6.60;99.90
18339;DHT22;9295;44.484;11.240;2022-12-18T03:57:16;6.70;99.90
18339;DHT22;9295;44.484;11.240;2022-12-18T03:59:51;6.70;99.90
18339;DHT22;9295;44.484;11.240;2022-12-18T04:02:25;6.70;99.90
18339;DHT22;9295;44.484;11.240;2022-12-18T04:05:00;6.70;99.90
18339;DHT22;9295;44.484;11.240;2022-12-18T04:07:30;6.70;99.90
18339;DHT22;9295;44.484;11.240;2022-12-18T04:10:01;6.70;99.90
18339;DHT22;9295;44.484;11.240;2022-12-18T04:12:31;6.70;99.90
18339;DHT22;9295;44.484;11.240;2022-12-18T04:15:01;6.60;99.90
18339;DHT22;9295;44.484;11.240;2022-12-18T04:17:30;6.70;99.90
18339;DHT22;9295;44.484;11.240;2022-12-18T04:19:58;6.70;99.90
18339;DHT22;9295;44.484;11.240;2022-12-18T04:22:27;6.70;99.90
18339;DHT22;9295;44.484;11.240;2022-12-18T04:24:59;6.70;99.90
18339;DHT22;9295;44.484;11.240;2022-12-18T04:27:35;6.70;99.90
18339;DHT22;9295;44.484;11.240;2022-12-18T04:30:07;6.70;99.90
18339;DHT22;9295;44.484;11.240;2022-12-18T04:32:36;6.80;99.90
18339;DHT22;9295;44.484;11.240;2022-12-18T04:35:05;6.80;99.90
18339;DHT22;9295;44.484;11.240;2022-12-18T04:37:40;6.80;99.90
18339;DHT22;9295;44.484;11.240;2022-12-18T04:40:11;6.80;99.90
18339;DHT22;9295;44.484;11.240;2022-12-18T04:42:43;6.70;99.90
18339;DHT22;9295;44.484;11.240;2022-12-18T04:45:13;6.70;99.90
18339;DHT22;9295;44.484;11.240;2022-12-18T04:47:41;6.70;99.90
18339;DHT22;9295;44.484;11.240;2022-12-18T04:50:10;6.70;99.90
18339;DHT22;9295;44.484;11.240;2022-12-18T04:52:38;6.80;99.90
18339;DHT22;9295;44.484;11.240;2022-12-18T04:55:07;6.80;99.90
18339;DHT22;9295;44.484;11.240;2022-12-18T04:57:36;6.80;99.90
18339;DHT22;9295;44.484;11.240;2022-12-18T05:00:05;6.80;99.90
18339;DHT22;9295;44.484;11.240;2022-12-18T05:02:35;6.70;99.90
18339;DHT22;9295;44.484;11.240;2022-12-18T05:05:04;6.70;99.90
18339;DHT22;9295;44.484;11.240;2022-12-18T05:07:33;6.70;99.90
18339;DHT22;9295;44.484;11.240;2022-12-18T05:10:02;6.70;99.90
18339;DHT22;9295;44.484;11.240;2022-12-18T05:12:31;6.70;99.90
18339;DHT22;9295;44.484;11.240;2022-12-18T05:15:00;6.70;99.90
18339;DHT22;9295;44.484;11.240;2022-12-18T05:17:28;6.70;99.90
18339;DHT22;9295;44.484;11.240;2022-12-18T05:19:58;6.70;99.90
18339;DHT22;9295;44.484;11.240;2022-12-18T05:22:26;6.70;99.90
18339;DHT22;9295;44.484;11.240;2022-12-18T05:24:55;6.70;99.90
18339;DHT22;9295;44.484;11.240;2022-12-18T05:27:23;6.80;99.90
18339;DHT22;9295;44.484;11.240;2022-12-18T05:29:52;6.70;99.90
18339;DHT22;9295;44.484;11.240;2022-12-18T05:32:20;6.80;99.90
18339;DHT22;9295;44.484;11.240;2022-12-18T05:34:48;6.80;99.90
18339;DHT22;9295;44.484;11.240;2022-12-18T05:37:18;6.80;99.90
18339;DHT22;9295;44.484;11.240;2022-12-18T05:39:47;6.80;99.90
18339;DHT22;9295;44.484;11.240;2022-12-18T05:42:16;6.80;99.90
18339;DHT22;9295;44.484;11.240;2022-12-18T05:44:44;6.90;99.90
18339;DHT22;9295;44.484;11.240;2022-12-18T05:47:13;6.90;99.90
18339;DHT22;9295;44.484;11.240;2022-12-18T05:49:41;6.80;99.90
18339;DHT22;9295;44.484;11.240;2022-12-18T05:52:10;6.80;99.90
18339;DHT22;9295;44.484;11.240;2022-12-18T05:54:39;6.80;99.90
18339;DHT22;9295;44.484;11.240;2022-12-18T05:57:08;6.80;99.90
18339;DHT22;9295;44.484;11.240;2022-12-18T05:59:36;6.80;99.90
18339;DHT22;9295;44.484;11.240;2022-12-18T06:02:05;6.70;99.90
18339;DHT22;9295;44.484;11.240;2022-12-18T06:04:33;6.80;99.90
18339;DHT22;9295;44.484;11.240;2022-12-18T06:07:02;6.80;99.90
18339;DHT22;9295;44.484;11.240;2022-12-18T06:09:30;6.80;99.90
18339;DHT22;9295;44.484;11.240;2022-12-18T06:12:00;6.80;99.90
18339;DHT22;9295;44.484;11.240;2022-12-18T06:14:29;6.80;99.90
18339;DHT22;9295;44.484;11.240;2022-12-18T06:16:57;6.80;99.90
18339;DHT22;9295;44.484;11.240;2022-12-18T06:19:25;6.80;99.90
18339;DHT22;9295;44.484;11.240;2022-12-18T06:21:54;6.80;99.90
18339;DHT22;9295;44.484;11.240;2022-12-18T06:24:24;6.80;99.90
18339;DHT22;9295;44.484;11.240;2022-12-18T06:26:53;6.80;99.90
18339;DHT22;9295;44.484;11.240;2022-12-18T06:29:23;6.70;99.90
18339;DHT22;9295;44.484;11.240;2022-12-18T06:31:52;6.70;99.90
18339;DHT22;9295;44.484;11.240;2022-12-18T06:34:20;6.70;99.90
18339;DHT22;9295;44.484;11.240;2022-12-18T06:36:48;6.70;99.90
18339;DHT22;9295;44.484;11.240;2022-12-18T06:39:17;6.70;99.90
18339;DHT22;9295;44.484;11.240;2022-12-18T06:41:45;6.70;99.90
18339;DHT22;9295;44.484;11.240;2022-12-18T06:44:14;6.70;99.90
18339;DHT22;9295;44.484;11.240;2022-12-18T06:46:44;6.80;99.90
18339;DHT22;9295;44.484;11.240;2022-12-18T06:49:12;6.70;99.90
18339;DHT22;9295;44.484;11.240;2022-12-18T06:51:41;6.70;99.90
18339;DHT22;9295;44.484;11.240;2022-12-18T06:54:09;6.70;99.90
18339;DHT22;9295;44.484;11.240;2022-12-18T06:56:37;6.70;99.90
18339;DHT22;9295;44.484;11.240;2022-12-18T06:59:06;6.70;99.90
18339;DHT22;9295;44.484;11.240;2022-12-18T07:01:34;6.70;99.90
18339;DHT22;9295;44.484;11.240;2022-12-18T07:04:05;6.70;99.90
18339;DHT22;9295;44.484;11.240;2022-12-18T07:06:33;6.70;99.90
18339;DHT22;9295;44.484;11.240;2022-12-18T07:09:01;6.70;99.90
18339;DHT22;9295;44.484;11.240;2022-12-18T07:11:32;6.70;99.90
18339;DHT22;9295;44.484;11.240;2022-12-18T07:14:01;6.70;99.90
18339;DHT22;9295;44.484;11.240;2022-12-18T07:16:29;6.70;99.90
18339;DHT22;9295;44.484;11.240;2022-12-18T07:18:57;6.60;99.90
18339;DHT22;9295;44.484;11.240;2022-12-18T07:21:27;6.60;99.90
18339;DHT22;9295;44.484;11.240;2022-12-18T07:23:56;6.60;99.90
18339;DHT22;9295;44.484;11.240;2022-12-18T07:26:24;6.60;99.90
18339;DHT22;9295;44.484;11.240;2022-12-18T07:28:55;6.70;99.90
18339;DHT22;9295;44.484;11.240;2022-12-18T07:31:25;7.30;99.90
18339;DHT22;9295;44.484;11.240;2022-12-18T07:33:54;8.50;99.90
18339;DHT22;9295;44.484;11.240;2022-12-18T07:36:23;9.50;99.90
18339;DHT22;9295;44.484;11.240;2022-12-18T07:38:53;10.00;99.90
18339;DHT22;9295;44.484;11.240;2022-12-18T07:41:21;10.10;99.90
18339;DHT22;9295;44.484;11.240;2022-12-18T07:43:50;10.20;99.90
18339;DHT22;9295;44.484;11.240;2022-12-18T07:46:18;10.30;99.90
18339;DHT22;9295;44.484;11.240;2022-12-18T07:48:47;10.10;99.90
18339;DHT22;9295;44.484;11.240;2022-12-18T07:51:17;9.80;99.90
18339;DHT22;9295;44.484;11.240;2022-12-18T07:53:46;9.50;99.90
18339;DHT22;9295;44.484;11.240;2022-12-18T07:56:20;9.20;99.90
18339;DHT22;9295;44.484;11.240;2022-12-18T07:58:58;9.10;99.90
18339;DHT22;9295;44.484;11.240;2022-12-18T08:01:29;9.10;99.90
18339;DHT22;9295;44.484;11.240;2022-12-18T08:03:58;9.10;99.90
18339;DHT22;9295;44.484;11.240;2022-12-18T08:06:27;9.10;99.90
18339;DHT22;9295;44.484;11.240;2022-12-18T08:08:56;9.20;99.90
18339;DHT22;9295;44.484;11.240;2022-12-18T08:11:27;9.20;99.90
18339;DHT22;9295;44.484;11.240;2022-12-18T08:13:56;9.20;99.90
18339;DHT22;9295;44.484;11.240;2022-12-18T08:16:26;9.30;99.90
18339;DHT22;9295;44.484;11.240;2022-12-18T08:18:55;9.30;99.90
18339;DHT22;9295;44.484;11.240;2022-12-18T08:21:25;9.30;99.90
18339;DHT22;9295;44.484;11.240;2022-12-18T08:23:55;9.40;99.90
18339;DHT22;9295;44.484;11.240;2022-12-18T08:26:28;9.20;99.90
18339;DHT22;9295;44.484;11.240;2022-12-18T08:28:59;9.30;99.90
18339;DHT22;9295;44.484;11.240;2022-12-18T08:31:29;9.30;99.90
18339;DHT22;9295;44.484;11.240;2022-12-18T08:33:58;9.50;99.90
18339;DHT22;9295;44.484;11.240;2022-12-18T08:36:26;9.60;99.90
18339;DHT22;9295;44.484;11.240;2022-12-18T08:38:55;9.60;99.90
18339;DHT22;9295;44.484;11.240;2022-12-18T08:41:26;9.50;99.90
18339;DHT22;9295;44.484;11.240;2022-12-18T08:43:54;9.50;99.90
18339;DHT22;9295;44.484;11.240;2022-12-18T08:46:41;9.50;99.90
18339;DHT22;9295;44.484;11.240;2022-12-18T08:49:11;9.70;99.90
18339;DHT22;9295;44.484;11.240;2022-12-18T08:51:40;9.80;99.90
18339;DHT22;9295;44.484;11.240;2022-12-18T08:54:11;9.80;99.90
18339;DHT22;9295;44.484;11.240;2022-12-18T08:56:41;9.70;99.90
18339;DHT22;9295;44.484;11.240;2022-12-18T08:59:09;9.80;99.90
18339;DHT22;9295;44.484;11.240;2022-12-18T09:01:46;9.90;99.90
18339;DHT22;9295;44.484;11.240;2022-12-18T09:04:15;9.90;99.90
18339;DHT22;9295;44.484;11.240;2022-12-18T09:06:43;9.90;99.90
18339;DHT22;9295;44.484;11.240;2022-12-18T09:09:12;10.00;99.90
18339;DHT22;9295;44.484;11.240;2022-12-18T09:11:44;10.00;99.90
18339;DHT22;9295;44.484;11.240;2022-12-18T09:14:12;10.00;99.90
18339;DHT22;9295;44.484;11.240;2022-12-18T09:16:41;10.10;99.90
18339;DHT22;9295;44.484;11.240;2022-12-18T09:19:10;10.10;99.90
18339;DHT22;9295;44.484;11.240;2022-12-18T09:21:38;10.20;99.90
18339;DHT22;9295;44.484;11.240;2022-12-18T09:24:16;10.20;99.90
18339;DHT22;9295;44.484;11.240;2022-12-18T09:26:54;10.20;99.90
18339;DHT22;9295;44.484;11.240;2022-12-18T09:29:24;10.40;99.90
18339;DHT22;9295;44.484;11.240;2022-12-18T09:31:52;10.60;99.90
18339;DHT22;9295;44.484;11.240;2022-12-18T09:34:21;10.70;99.90
18339;DHT22;9295;44.484;11.240;2022-12-18T09:36:50;10.60;99.90
18339;DHT22;9295;44.484;11.240;2022-12-18T09:39:18;10.50;99.90
18339;DHT22;9295;44.484;11.240;2022-12-18T09:41:51;10.40;99.90
18339;DHT22;9295;44.484;11.240;2022-12-18T09:44:26;10.30;99.90
18339;DHT22;9295;44.484;11.240;2022-12-18T09:47:03;10.40;99.90
18339;DHT22;9295;44.484;11.240;2022-12-18T09:49:39;10.30;99.90
18339;DHT22;9295;44.484;11.240;2022-12-18T09:52:13;10.20;99.90
18339;DHT22;9295;44.484;11.240;2022-12-18T09:54:46;10.10;99.90
18339;DHT22;9295;44.484;11.240;2022-12-18T09:57:18;10.00;99.90
18339;DHT22;9295;44.484;11.240;2022-12-18T09:59:53;10.00;99.90
18339;DHT22;9295;44.484;11.240;2022-12-18T10:02:25;10.00;99.90
18339;DHT22;9295;44.484;11.240;2022-12-18T10:05:03;10.00;99.90
18339;DHT22;9295;44.484;11.240;2022-12-18T10:07:47;10.00;99.90
18339;DHT22;9295;44.484;11.240;2022-12-18T10:10:33;9.90;99.90
18339;DHT22;9295;44.484;11.240;2022-12-18T10:13:12;10.00;99.90
18339;DHT22;9295;44.484;11.240;2022-12-18T10:15:54;10.00;99.90
18339;DHT22;9295;44.484;11.240;2022-12-18T10:18:46;9.90;99.90
18339;DHT22;9295;44.484;11.240;2022-12-18T10:21:21;10.00;99.90
18339;DHT22;9295;44.484;11.240;2022-12-18T10:23:57;9.90;99.90
18339;DHT22;9295;44.484;11.240;2022-12-18T10:26:27;9.90;99.90
18339;DHT22;9295;44.484;11.240;2022-12-18T10:28:57;10.00;99.90
18339;DHT22;9295;44.484;11.240;2022-12-18T10:31:33;10.00;99.90
18339;DHT22;9295;44.484;11.240;2022-12-18T10:34:01;10.00;99.90
18339;DHT22;9295;44.484;11.240;2022-12-18T10:36:30;10.10;99.90
18339;DHT22;9295;44.484;11.240;2022-12-18T10:39:14;10.00;99.90
18339;DHT22;9295;44.484;11.240;2022-12-18T10:41:43;10.00;99.90
18339;DHT22;9295;44.484;11.240;2022-12-18T10:44:16;10.10;99.90
18339;DHT22;9295;44.484;11.240;2022-12-18T10:46:48;9.70;99.90
18339;DHT22;9295;44.484;11.240;2022-12-18T10:49:26;9.20;99.90
18339;DHT22;9295;44.484;11.240;2022-12-18T10:52:05;8.80;99.90
18339;DHT22;9295;44.484;11.240;2022-12-18T10:54:36;8.60;99.90
18339;DHT22;9295;44.484;11.240;2022-12-18T10:57:16;8.70;99.90
18339;DHT22;9295;44.484;11.240;2022-12-18T10:59:52;9.00;99.90
18339;DHT22;9295;44.484;11.240;2022-12-18T11:02:34;9.20;99.90
18339;DHT22;9295;44.484;11.240;2022-12-18T11:05:24;9.30;99.90
18339;DHT22;9295;44.484;11.240;2022-12-18T11:07:54;9.50;99.90
18339;DHT22;9295;44.484;11.240;2022-12-18T11:10:28;9.20;99.90
18339;DHT22;9295;44.484;11.240;2022-12-18T11:13:10;9.20;99.90
18339;DHT22;9295;44.484;11.240;2022-12-18T11:15:40;9.30;99.90
18339;DHT22;9295;44.484;11.240;2022-12-18T11:18:18;9.40;99.90
18339;DHT22;9295;44.484;11.240;2022-12-18T11:20:53;9.40;99.90
18339;DHT22;9295;44.484;11.240;2022-12-18T11:23:25;9.60;99.90
18339;DHT22;9295;44.484;11.240;2022-12-18T11:25:56;9.70;99.90
18339;DHT22;9295;44.484;11.240;2022-12-18T11:28:34;9.70;99.90
18339;DHT22;9295;44.484;11.240;2022-12-18T11:31:22;9.50;99.90
18339;DHT22;9295;44.484;11.240;2022-12-18T11:34:05;9.60;99.90
18339;DHT22;9295;44.484;11.240;2022-12-18T11:36:58;9.90;99.90
18339;DHT22;9295;44.484;11.240;2022-12-18T11:39:33;9.90;99.90
18339;DHT22;9295;44.484;11.240;2022-12-18T11:42:09;9.70;99.90
18339;DHT22;9295;44.484;11.240;2022-12-18T11:44:44;9.30;99.90
18339;DHT22;9295;44.484;11.240;2022-12-18T11:47:21;9.00;99.90
18339;DHT22;9295;44.484;11.240;2022-12-18T11:49:55;8.90;99.90
18339;DHT22;9295;44.484;11.240;2022-12-18T11:52:27;9.20;99.90
18339;DHT22;9295;44.484;11.240;2022-12-18T11:54:59;9.50;99.90
18339;DHT22;9295;44.484;11.240;2022-12-18T11:57:35;9.70;99.90
18339;DHT22;9295;44.484;11.240;2022-12-18T12:00:11;9.90;99.90
18339;DHT22;9295;44.484;11.240;2022-12-18T12:03:17;9.40;99.90
18339;DHT22;9295;44.484;11.240;2022-12-18T12:05:59;9.40;99.90
18339;DHT22;9295;44.484;11.240;2022-12-18T12:08:40;9.60;99.90
18339;DHT22;9295;44.484;11.240;2022-12-18T12:11:13;9.80;99.90
18339;DHT22;9295;44.484;11.240;2022-12-18T12:13:51;9.70;99.90
18339;DHT22;9295;44.484;11.240;2022-12-18T12:16:28;9.40;99.90
18339;DHT22;9295;44.484;11.240;2022-12-18T12:19:15;9.10;99.90
18339;DHT22;9295;44.484;11.240;2022-12-18T12:21:55;9.20;99.90
18339;DHT22;9295;44.484;11.240;2022-12-18T12:24:37;9.40;99.90
18339;DHT22;9295;44.484;11.240;2022-12-18T12:27:18;9.70;99.90
18339;DHT22;9295;44.484;11.240;2022-12-18T12:29:58;9.90;99.90
18339;DHT22;9295;44.484;11.240;2022-12-18T12:32:42;9.60;99.90
18339;DHT22;9295;44.484;11.240;2022-12-18T12:35:25;9.30;99.90
18339;DHT22;9295;44.484;11.240;2022-12-18T12:38:06;9.40;99.90
18339;DHT22;9295;44.484;11.240;2022-12-18T12:40:40;9.70;99.90
18339;DHT22;9295;44.484;11.240;2022-12-18T12:43:32;9.90;99.90
18339;DHT22;9295;44.484;11.240;2022-12-18T12:46:05;10.00;99.90
18339;DHT22;9295;44.484;11.240;2022-12-18T12:48:40;9.70;99.90
18339;DHT22;9295;44.484;11.240;2022-12-18T12:51:15;9.40;99.90
18339;DHT22;9295;44.484;11.240;2022-12-18T12:53:46;9.20;99.90
18339;DHT22;9295;44.484;11.240;2022-12-18T12:56:18;9.40;99.90
18339;DHT22;9295;44.484;11.240;2022-12-18T12:58:55;9.60;99.90
18339;DHT22;9295;44.484;11.240;2022-12-18T13:01:33;9.90;99.90
18339;DHT22;9295;44.484;11.240;2022-12-18T13:04:12;10.00;99.90
18339;DHT22;9295;44.484;11.240;2022-12-18T13:06:46;9.80;99.90
18339;DHT22;9295;44.484;11.240;2022-12-18T13:09:18;9.50;99.90
18339;DHT22;9295;44.484;11.240;2022-12-18T13:11:48;9.70;99.90
18339;DHT22;9295;44.484;11.240;2022-12-18T13:14:36;10.00;99.90
18339;DHT22;9295;44.484;11.240;2022-12-18T13:17:16;10.10;99.90
18339;DHT22;9295;44.484;11.240;2022-12-18T13:19:48;9.60;99.90
18339;DHT22;9295;44.484;11.240;2022-12-18T13:22:21;9.30;99.90
18339;DHT22;9295;44.484;11.240;2022-12-18T13:24:52;9.20;99.90
18339;DHT22;9295;44.484;11.240;2022-12-18T13:30:44;9.70;99.90
18339;DHT22;9295;44.484;11.240;2022-12-18T13:33:48;9.90;99.90
18339;DHT22;9295;44.484;11.240;2022-12-18T13:36:36;9.30;99.90
18339;DHT22;9295;44.484;11.240;2022-12-18T13:39:32;9.30;99.90
18339;DHT22;9295;44.484;11.240;2022-12-18T13:42:38;9.50;99.90
18339;DHT22;9295;44.484;11.240;2022-12-18T13:45:59;9.80;99.90
18339;DHT22;9295;44.484;11.240;2022-12-18T13:48:30;9.90;99.90
18339;DHT22;9295;44.484;11.240;2022-12-18T13:51:03;9.50;99.90
18339;DHT22;9295;44.484;11.240;2022-12-18T13:53:36;9.10;99.90
18339;DHT22;9295;44.484;11.240;2022-12-18T13:56:08;9.20;99.90
18339;DHT22;9295;44.484;11.240;2022-12-18T13:58:38;9.40;99.90
18339;DHT22;9295;44.484;11.240;2022-12-18T14:01:21;9.60;99.90
18339;DHT22;9295;44.484;11.240;2022-12-18T14:04:09;9.70;99.90
18339;DHT22;9295;44.484;11.240;2022-12-18T14:06:37;9.30;99.90
18339;DHT22;9295;44.484;11.240;2022-12-18T14:09:13;9.30;99.90
18339;DHT22;9295;44.484;11.240;2022-12-18T14:11:48;9.40;99.90
18339;DHT22;9295;44.484;11.240;2022-12-18T14:14:19;9.50;99.90
18339;DHT22;9295;44.484;11.240;2022-12-18T14:16:50;9.60;99.90
18339;DHT22;9295;44.484;11.240;2022-12-18T14:19:19;9.60;99.90
18339;DHT22;9295;44.484;11.240;2022-12-18T14:21:49;9.50;99.90
18339;DHT22;9295;44.484;11.240;2022-12-18T14:24:19;9.00;99.90
18339;DHT22;9295;44.484;11.240;2022-12-18T14:26:49;8.90;99.90
18339;DHT22;9295;44.484;11.240;2022-12-18T14:29:22;9.10;99.90
18339;DHT22;9295;44.484;11.240;2022-12-18T14:32:13;9.20;99.90
18339;DHT22;9295;44.484;11.240;2022-12-18T14:34:46;9.40;99.90
18339;DHT22;9295;44.484;11.240;2022-12-18T14:37:16;9.30;99.90
18339;DHT22;9295;44.484;11.240;2022-12-18T14:39:59;8.80;99.90
18339;DHT22;9295;44.484;11.240;2022-12-18T14:42:37;8.60;99.90
18339;DHT22;9295;44.484;11.240;2022-12-18T14:45:38;8.70;99.90
18339;DHT22;9295;44.484;11.240;2022-12-18T14:48:15;8.80;99.90
18339;DHT22;9295;44.484;11.240;2022-12-18T14:50:57;8.90;99.90
18339;DHT22;9295;44.484;11.240;2022-12-18T14:53:33;8.40;99.90
18339;DHT22;9295;44.484;11.240;2022-12-18T14:56:03;8.20;99.90
18339;DHT22;9295;44.484;11.240;2022-12-18T14:58:32;8.20;99.90
18339;DHT22;9295;44.484;11.240;2022-12-18T15:01:02;8.30;99.90
18339;DHT22;9295;44.484;11.240;2022-12-18T15:03:30;8.40;99.90
18339;DHT22;9295;44.484;11.240;2022-12-18T15:06:15;8.50;99.90
18339;DHT22;9295;44.484;11.240;2022-12-18T15:08:44;8.10;99.90
18339;DHT22;9295;44.484;11.240;2022-12-18T15:11:33;7.70;99.90
18339;DHT22;9295;44.484;11.240;2022-12-18T15:14:28;7.80;99.90
18339;DHT22;9295;44.484;11.240;2022-12-18T15:17:00;7.90;99.90
18339;DHT22;9295;44.484;11.240;2022-12-18T15:19:38;8.00;99.90
18339;DHT22;9295;44.484;11.240;2022-12-18T15:22:20;8.00;99.90
18339;DHT22;9295;44.484;11.240;2022-12-18T15:24:49;7.90;99.90
18339;DHT22;9295;44.484;11.240;2022-12-18T15:27:27;7.50;99.90
18339;DHT22;9295;44.484;11.240;2022-12-18T15:30:16;7.20;99.90
18339;DHT22;9295;44.484;11.240;2022-12-18T15:32:48;7.20;99.90
18339;DHT22;9295;44.484;11.240;2022-12-18T15:35:19;7.20;99.90
18339;DHT22;9295;44.484;11.240;2022-12-18T15:37:49;7.30;99.90
18339;DHT22;9295;44.484;11.240;2022-12-18T15:40:19;7.30;99.90
18339;DHT22;9295;44.484;11.240;2022-12-18T15:42:48;7.00;99.90
18339;DHT22;9295;44.484;11.240;2022-12-18T15:45:36;6.70;99.90
18339;DHT22;9295;44.484;11.240;2022-12-18T15:48:16;6.70;99.90
18339;DHT22;9295;44.484;11.240;2022-12-18T15:50:46;6.80;99.90
18339;DHT22;9295;44.484;11.240;2022-12-18T15:53:14;6.80;99.90
18339;DHT22;9295;44.484;11.240;2022-12-18T15:55:42;6.90;99.90
18339;DHT22;9295;44.484;11.240;2022-12-18T15:58:29;6.80;99.90
18339;DHT22;9295;44.484;11.240;2022-12-18T16:00:58;6.50;99.90
18339;DHT22;9295;44.484;11.240;2022-12-18T16:03:29;6.60;99.90
18339;DHT22;9295;44.484;11.240;2022-12-18T16:05:58;6.90;99.90
18339;DHT22;9295;44.484;11.240;2022-12-18T16:08:30;6.90;99.90
18339;DHT22;9295;44.484;11.240;2022-12-18T16:10:59;6.80;99.90
18339;DHT22;9295;44.484;11.240;2022-12-18T16:13:28;6.30;99.90
18339;DHT22;9295;44.484;11.240;2022-12-18T16:15:56;6.00;99.90
18339;DHT22;9295;44.484;11.240;2022-12-18T16:18:29;5.70;99.90
18339;DHT22;9295;44.484;11.240;2022-12-18T16:20:58;5.90;99.90
18339;DHT22;9295;44.484;11.240;2022-12-18T16:23:26;6.00;99.90
18339;DHT22;9295;44.484;11.240;2022-12-18T16:25:55;6.00;99.90